sensor_id;sensor_type;location;lat;lon;timestamp;temperature;humidity
36244;DHT22;22284;49.956;19.816;2022-09-02T00:00:05;12.00;72.27
36244;DHT22;22284;49.956;19.816;2022-09-02T00:03:11;11.97;72.08
36244;DHT22;22284;49.956;19.816;2022-09-02T00:06:13;11.94;72.07
36244;DHT22;22284;49.956;19.816;2022-09-02T00:09:18;11.96;72.35
36244;DHT22;22284;49.956;19.816;2022-09-02T00:12:19;11.93;72.21
36244;DHT22;22284;49.956;19.816;2022-09-02T00:15:20;11.90;72.33
36244;DHT22;22284;49.956;19.816;2022-09-02T00:18:21;11.90;72.39
36244;DHT22;22284;49.956;19.816;2022-09-02T00:21:24;11.86;72.54
36244;DHT22;22284;49.956;19.816;2022-09-02T00:24:26;11.84;72.50
36244;DHT22;22284;49.956;19.816;2022-09-02T00:27:28;11.80;72.43
36244;DHT22;22284;49.956;19.816;2022-09-02T00:30:29;11.79;72.26
36244;DHT22;22284;49.956;19.816;2022-09-02T00:33:30;11.76;72.30
36244;DHT22;22284;49.956;19.816;2022-09-02T00:36:32;11.74;72.38
36244;DHT22;22284;49.956;19.816;2022-09-02T00:39:33;11.70;72.45
36244;DHT22;22284;49.956;19.816;2022-09-02T00:42:34;11.69;72.47
36244;DHT22;22284;49.956;19.816;2022-09-02T00:45:36;11.62;72.50
36244;DHT22;22284;49.956;19.816;2022-09-02T00:52:31;11.53;72.40
36244;DHT22;22284;49.956;19.816;2022-09-02T00:55:37;11.53;72.46
36244;DHT22;22284;49.956;19.816;2022-09-02T00:58:39;11.52;72.41
36244;DHT22;22284;49.956;19.816;2022-09-02T01:01:42;11.51;72.41
36244;DHT22;22284;49.956;19.816;2022-09-02T01:04:46;11.53;72.38
36244;DHT22;22284;49.956;19.816;2022-09-02T01:07:47;11.51;72.43
36244;DHT22;22284;49.956;19.816;2022-09-02T01:10:52;11.51;72.46
36244;DHT22;22284;49.956;19.816;2022-09-02T01:13:55;11.48;72.47
36244;DHT22;22284;49.956;19.816;2022-09-02T01:16:59;11.51;72.46
36244;DHT22;22284;49.956;19.816;2022-09-02T01:20:06;11.46;72.58
36244;DHT22;22284;49.956;19.816;2022-09-02T01:23:08;11.45;72.56
36244;DHT22;22284;49.956;19.816;2022-09-02T01:26:09;11.42;72.46
36244;DHT22;22284;49.956;19.816;2022-09-02T01:29:10;11.42;72.61
36244;DHT22;22284;49.956;19.816;2022-09-02T01:32:12;11.38;72.61
36244;DHT22;22284;49.956;19.816;2022-09-02T01:35:13;11.35;72.48
36244;DHT22;22284;49.956;19.816;2022-09-02T01:38:16;11.34;72.38
36244;DHT22;22284;49.956;19.816;2022-09-02T01:41:17;11.32;72.53
36244;DHT22;22284;49.956;19.816;2022-09-02T01:44:18;11.29;72.42
36244;DHT22;22284;49.956;19.816;2022-09-02T01:47:24;11.26;72.39
36244;DHT22;22284;49.956;19.816;2022-09-02T01:50:26;11.26;72.37
36244;DHT22;22284;49.956;19.816;2022-09-02T01:53:29;11.24;72.34
36244;DHT22;22284;49.956;19.816;2022-09-02T01:56:30;11.24;72.41
36244;DHT22;22284;49.956;19.816;2022-09-02T01:59:31;11.22;72.47
36244;DHT22;22284;49.956;19.816;2022-09-02T02:05:45;11.17;72.28
36244;DHT22;22284;49.956;19.816;2022-09-02T02:08:46;11.12;72.41
36244;DHT22;22284;49.956;19.816;2022-09-02T02:11:49;11.10;72.40
36244;DHT22;22284;49.956;19.816;2022-09-02T02:14:50;11.04;72.62
36244;DHT22;22284;49.956;19.816;2022-09-02T02:17:51;10.98;72.39
36244;DHT22;22284;49.956;19.816;2022-09-02T02:20:53;10.96;72.48
36244;DHT22;22284;49.956;19.816;2022-09-02T02:23:54;10.96;72.47
36244;DHT22;22284;49.956;19.816;2022-09-02T02:26:55;10.93;72.68
36244;DHT22;22284;49.956;19.816;2022-09-02T02:29:56;10.84;72.61
36244;DHT22;22284;49.956;19.816;2022-09-02T02:32:57;10.84;72.64
36244;DHT22;22284;49.956;19.816;2022-09-02T02:35:58;10.82;72.62
36244;DHT22;22284;49.956;19.816;2022-09-02T02:38:59;10.84;72.62
36244;DHT22;22284;49.956;19.816;2022-09-02T02:42:01;10.86;72.56
36244;DHT22;22284;49.956;19.816;2022-09-02T02:45:03;10.84;72.58
36244;DHT22;22284;49.956;19.816;2022-09-02T02:48:07;10.82;72.56
36244;DHT22;22284;49.956;19.816;2022-09-02T02:51:08;10.80;72.51
36244;DHT22;22284;49.956;19.816;2022-09-02T02:54:09;10.80;72.54
36244;DHT22;22284;49.956;19.816;2022-09-02T02:57:12;10.78;72.55
36244;DHT22;22284;49.956;19.816;2022-09-02T03:00:21;10.73;72.51
36244;DHT22;22284;49.956;19.816;2022-09-02T03:03:23;10.75;72.50
36244;DHT22;22284;49.956;19.816;2022-09-02T03:06:24;10.75;72.56
36244;DHT22;22284;49.956;19.816;2022-09-02T03:09:25;10.69;72.49
36244;DHT22;22284;49.956;19.816;2022-09-02T03:12:26;10.68;72.53
36244;DHT22;22284;49.956;19.816;2022-09-02T03:15:28;10.66;72.56
36244;DHT22;22284;49.956;19.816;2022-09-02T03:18:29;10.62;72.59
36244;DHT22;22284;49.956;19.816;2022-09-02T03:21:30;10.56;72.58
36244;DHT22;22284;49.956;19.816;2022-09-02T03:24:31;10.55;72.88
36244;DHT22;22284;49.956;19.816;2022-09-02T03:27:33;10.45;72.67
36244;DHT22;22284;49.956;19.816;2022-09-02T03:30:35;10.39;72.80
36244;DHT22;22284;49.956;19.816;2022-09-02T03:33:36;10.34;72.89
36244;DHT22;22284;49.956;19.816;2022-09-02T03:36:39;10.37;72.88
36244;DHT22;22284;49.956;19.816;2022-09-02T03:39:40;10.34;73.05
36244;DHT22;22284;49.956;19.816;2022-09-02T03:42:41;10.31;72.88
36244;DHT22;22284;49.956;19.816;2022-09-02T03:45:42;10.28;72.88
36244;DHT22;22284;49.956;19.816;2022-09-02T03:48:43;10.31;72.93
36244;DHT22;22284;49.956;19.816;2022-09-02T03:51:44;10.31;73.05
36244;DHT22;22284;49.956;19.816;2022-09-02T03:54:46;10.31;73.07
36244;DHT22;22284;49.956;19.816;2022-09-02T03:57:47;10.32;73.04
36244;DHT22;22284;49.956;19.816;2022-09-02T04:00:52;10.29;72.96
36244;DHT22;22284;49.956;19.816;2022-09-02T04:03:53;10.31;72.98
36244;DHT22;22284;49.956;19.816;2022-09-02T04:06:56;10.31;73.02
36244;DHT22;22284;49.956;19.816;2022-09-02T04:09:57;10.27;73.04
36244;DHT22;22284;49.956;19.816;2022-09-02T04:12:58;10.28;73.11
36244;DHT22;22284;49.956;19.816;2022-09-02T04:16:06;10.24;73.14
36244;DHT22;22284;49.956;19.816;2022-09-02T04:19:07;10.27;73.11
36244;DHT22;22284;49.956;19.816;2022-09-02T04:22:09;10.28;73.18
36244;DHT22;22284;49.956;19.816;2022-09-02T04:25:10;10.25;73.20
36244;DHT22;22284;49.956;19.816;2022-09-02T04:28:11;10.27;73.27
36244;DHT22;22284;49.956;19.816;2022-09-02T04:31:16;10.25;73.30
36244;DHT22;22284;49.956;19.816;2022-09-02T04:34:18;10.20;73.26
36244;DHT22;22284;49.956;19.816;2022-09-02T04:37:19;10.21;73.20
36244;DHT22;22284;49.956;19.816;2022-09-02T04:40:20;10.20;73.14
36244;DHT22;22284;49.956;19.816;2022-09-02T04:43:22;10.23;73.18
36244;DHT22;22284;49.956;19.816;2022-09-02T04:46:23;10.25;73.20
36244;DHT22;22284;49.956;19.816;2022-09-02T04:49:24;10.23;73.08
36244;DHT22;22284;49.956;19.816;2022-09-02T04:52:26;10.29;73.09
36244;DHT22;22284;49.956;19.816;2022-09-02T04:55:27;10.32;73.08
36244;DHT22;22284;49.956;19.816;2022-09-02T04:58:28;10.32;73.05
36244;DHT22;22284;49.956;19.816;2022-09-02T05:01:33;10.29;73.04
36244;DHT22;22284;49.956;19.816;2022-09-02T05:04:35;10.32;73.03
36244;DHT22;22284;49.956;19.816;2022-09-02T05:07:38;10.31;73.06
36244;DHT22;22284;49.956;19.816;2022-09-02T05:10:39;10.32;73.04
36244;DHT22;22284;49.956;19.816;2022-09-02T05:13:40;10.34;73.10
36244;DHT22;22284;49.956;19.816;2022-09-02T05:16:42;10.38;73.13
36244;DHT22;22284;49.956;19.816;2022-09-02T05:19:43;10.38;73.32
36244;DHT22;22284;49.956;19.816;2022-09-02T05:22:44;10.38;73.37
36244;DHT22;22284;49.956;19.816;2022-09-02T05:25:45;10.37;73.47
36244;DHT22;22284;49.956;19.816;2022-09-02T05:28:47;10.38;73.49
36244;DHT22;22284;49.956;19.816;2022-09-02T05:31:48;10.41;73.67
36244;DHT22;22284;49.956;19.816;2022-09-02T05:34:49;10.45;73.98
36244;DHT22;22284;49.956;19.816;2022-09-02T05:37:50;10.45;74.04
36244;DHT22;22284;49.956;19.816;2022-09-02T05:40:52;10.48;74.27
36244;DHT22;22284;49.956;19.816;2022-09-02T05:43:56;10.49;74.45
36244;DHT22;22284;49.956;19.816;2022-09-02T05:46:58;10.51;74.64
36244;DHT22;22284;49.956;19.816;2022-09-02T05:49:59;10.51;75.17
36244;DHT22;22284;49.956;19.816;2022-09-02T05:53:01;10.55;75.89
36244;DHT22;22284;49.956;19.816;2022-09-02T05:56:04;10.53;76.09
36244;DHT22;22284;49.956;19.816;2022-09-02T05:59:05;10.56;76.59
36244;DHT22;22284;49.956;19.816;2022-09-02T06:02:10;10.59;76.51
36244;DHT22;22284;49.956;19.816;2022-09-02T06:05:11;10.69;76.80
36244;DHT22;22284;49.956;19.816;2022-09-02T06:08:12;10.73;76.72
36244;DHT22;22284;49.956;19.816;2022-09-02T06:11:13;10.83;76.82
36244;DHT22;22284;49.956;19.816;2022-09-02T06:14:18;10.93;76.86
36244;DHT22;22284;49.956;19.816;2022-09-02T06:17:20;11.03;77.18
36244;DHT22;22284;49.956;19.816;2022-09-02T06:20:21;11.12;78.39
36244;DHT22;22284;49.956;19.816;2022-09-02T06:23:23;11.21;77.88
36244;DHT22;22284;49.956;19.816;2022-09-02T06:26:24;11.29;78.20
36244;DHT22;22284;49.956;19.816;2022-09-02T06:29:25;11.41;77.93
36244;DHT22;22284;49.956;19.816;2022-09-02T06:32:26;11.53;78.06
36244;DHT22;22284;49.956;19.816;2022-09-02T06:35:27;11.62;78.31
36244;DHT22;22284;49.956;19.816;2022-09-02T06:38:28;11.76;78.26
36244;DHT22;22284;49.956;19.816;2022-09-02T06:41:32;11.86;78.45
36244;DHT22;22284;49.956;19.816;2022-09-02T06:44:34;12.00;78.37
36244;DHT22;22284;49.956;19.816;2022-09-02T06:47:35;12.13;78.47
36244;DHT22;22284;49.956;19.816;2022-09-02T06:50:42;12.31;78.91
36244;DHT22;22284;49.956;19.816;2022-09-02T06:53:43;12.50;79.57
36244;DHT22;22284;49.956;19.816;2022-09-02T06:56:46;12.67;78.57
36244;DHT22;22284;49.956;19.816;2022-09-02T06:59:47;12.84;78.03
36244;DHT22;22284;49.956;19.816;2022-09-02T07:02:48;13.05;77.67
36244;DHT22;22284;49.956;19.816;2022-09-02T07:06:05;13.18;77.07
36244;DHT22;22284;49.956;19.816;2022-09-02T07:09:13;13.39;76.59
36244;DHT22;22284;49.956;19.816;2022-09-02T07:12:15;13.51;76.30
36244;DHT22;22284;49.956;19.816;2022-09-02T07:15:17;13.67;75.73
36244;DHT22;22284;49.956;19.816;2022-09-02T07:18:18;13.81;75.29
36244;DHT22;22284;49.956;19.816;2022-09-02T07:21:19;13.95;75.01
36244;DHT22;22284;49.956;19.816;2022-09-02T07:24:20;14.07;73.78
36244;DHT22;22284;49.956;19.816;2022-09-02T07:27:22;14.21;73.31
36244;DHT22;22284;49.956;19.816;2022-09-02T07:30:23;14.29;73.04
36244;DHT22;22284;49.956;19.816;2022-09-02T07:33:24;14.41;72.97
36244;DHT22;22284;49.956;19.816;2022-09-02T07:36:26;14.57;72.16
36244;DHT22;22284;49.956;19.816;2022-09-02T07:39:27;14.67;71.82
36244;DHT22;22284;49.956;19.816;2022-09-02T07:42:28;14.81;71.44
36244;DHT22;22284;49.956;19.816;2022-09-02T07:45:30;14.96;70.84
36244;DHT22;22284;49.956;19.816;2022-09-02T07:48:33;15.15;71.13
36244;DHT22;22284;49.956;19.816;2022-09-02T07:51:38;15.26;70.67
36244;DHT22;22284;49.956;19.816;2022-09-02T07:54:39;15.37;68.98
36244;DHT22;22284;49.956;19.816;2022-09-02T07:57:41;15.51;69.36
36244;DHT22;22284;49.956;19.816;2022-09-02T08:00:42;15.63;69.53
36244;DHT22;22284;49.956;19.816;2022-09-02T08:03:44;15.77;69.11
36244;DHT22;22284;49.956;19.816;2022-09-02T08:06:45;15.88;67.18
36244;DHT22;22284;49.956;19.816;2022-09-02T08:09:46;15.99;68.14
36244;DHT22;22284;49.956;19.816;2022-09-02T08:12:47;16.11;68.00
36244;DHT22;22284;49.956;19.816;2022-09-02T08:15:50;16.20;67.91
36244;DHT22;22284;49.956;19.816;2022-09-02T08:18:51;16.32;66.58
36244;DHT22;22284;49.956;19.816;2022-09-02T08:21:52;16.41;67.19
36244;DHT22;22284;49.956;19.816;2022-09-02T08:24:53;16.53;65.90
36244;DHT22;22284;49.956;19.816;2022-09-02T08:27:54;16.58;65.97
36244;DHT22;22284;49.956;19.816;2022-09-02T08:30:55;16.68;65.26
36244;DHT22;22284;49.956;19.816;2022-09-02T08:33:59;16.76;65.41
36244;DHT22;22284;49.956;19.816;2022-09-02T08:37:00;16.85;63.70
36244;DHT22;22284;49.956;19.816;2022-09-02T08:40:05;16.95;64.69
36244;DHT22;22284;49.956;19.816;2022-09-02T08:43:26;16.98;64.31
36244;DHT22;22284;49.956;19.816;2022-09-02T08:46:31;17.12;63.82
36244;DHT22;22284;49.956;19.816;2022-09-02T08:49:53;17.17;63.33
36244;DHT22;22284;49.956;19.816;2022-09-02T08:56:19;17.40;61.90
36244;DHT22;22284;49.956;19.816;2022-09-02T08:59:22;17.45;61.61
36244;DHT22;22284;49.956;19.816;2022-09-02T09:10:02;17.62;59.22
36244;DHT22;22284;49.956;19.816;2022-09-02T09:20:04;17.79;60.02
36244;DHT22;22284;49.956;19.816;2022-09-02T09:23:27;17.82;59.82
36244;DHT22;22284;49.956;19.816;2022-09-02T09:26:28;17.90;58.90
36244;DHT22;22284;49.956;19.816;2022-09-02T09:29:32;18.00;57.73
36244;DHT22;22284;49.956;19.816;2022-09-02T09:32:41;18.05;57.67
36244;DHT22;22284;49.956;19.816;2022-09-02T09:35:53;18.00;57.55
36244;DHT22;22284;49.956;19.816;2022-09-02T09:38:54;18.05;57.24
36244;DHT22;22284;49.956;19.816;2022-09-02T09:41:58;18.05;57.00
36244;DHT22;22284;49.956;19.816;2022-09-02T09:45:18;18.09;56.38
36244;DHT22;22284;49.956;19.816;2022-09-02T09:48:25;18.19;55.90
36244;DHT22;22284;49.956;19.816;2022-09-02T09:51:31;18.30;55.51
36244;DHT22;22284;49.956;19.816;2022-09-02T09:54:32;18.34;54.42
36244;DHT22;22284;49.956;19.816;2022-09-02T09:57:33;18.38;54.70
36244;DHT22;22284;49.956;19.816;2022-09-02T10:00:34;18.41;54.92
36244;DHT22;22284;49.956;19.816;2022-09-02T10:03:42;18.47;55.14
36244;DHT22;22284;49.956;19.816;2022-09-02T10:06:43;18.55;54.21
36244;DHT22;22284;49.956;19.816;2022-09-02T10:09:46;18.68;54.89
36244;DHT22;22284;49.956;19.816;2022-09-02T10:12:50;18.79;54.40
36244;DHT22;22284;49.956;19.816;2022-09-02T10:26:47;18.67;52.92
36244;DHT22;22284;49.956;19.816;2022-09-02T10:33:50;18.71;53.69
36244;DHT22;22284;49.956;19.816;2022-09-02T10:37:22;18.79;53.63
36244;DHT22;22284;49.956;19.816;2022-09-02T10:40:39;18.82;53.21
36244;DHT22;22284;49.956;19.816;2022-09-02T10:47:19;19.00;52.69
36244;DHT22;22284;49.956;19.816;2022-09-02T10:57:27;19.27;50.47
36244;DHT22;22284;49.956;19.816;2022-09-02T11:00:28;19.37;51.65
36244;DHT22;22284;49.956;19.816;2022-09-02T11:03:42;19.44;50.61
36244;DHT22;22284;49.956;19.816;2022-09-02T11:06:43;19.47;50.15
36244;DHT22;22284;49.956;19.816;2022-09-02T11:09:51;19.42;49.32
36244;DHT22;22284;49.956;19.816;2022-09-02T11:13:20;19.38;50.07
36244;DHT22;22284;49.956;19.816;2022-09-02T11:16:33;19.29;50.10
36244;DHT22;22284;49.956;19.816;2022-09-02T11:19:57;19.29;50.79
36244;DHT22;22284;49.956;19.816;2022-09-02T11:23:19;19.40;50.38
36244;DHT22;22284;49.956;19.816;2022-09-02T11:26:38;19.47;48.48
36244;DHT22;22284;49.956;19.816;2022-09-02T11:30:07;19.49;47.10
36244;DHT22;22284;49.956;19.816;2022-09-02T11:33:18;19.57;48.53
36244;DHT22;22284;49.956;19.816;2022-09-02T11:36:20;19.59;48.90
36244;DHT22;22284;49.956;19.816;2022-09-02T11:46:46;19.72;49.40
36244;DHT22;22284;49.956;19.816;2022-09-02T11:56:37;19.85;49.38
36244;DHT22;22284;49.956;19.816;2022-09-02T12:03:11;20.06;50.18
36244;DHT22;22284;49.956;19.816;2022-09-02T12:06:15;20.14;49.32
36244;DHT22;22284;49.956;19.816;2022-09-02T12:19:16;20.27;47.67
36244;DHT22;22284;49.956;19.816;2022-09-02T12:22:23;20.30;47.64
36244;DHT22;22284;49.956;19.816;2022-09-02T12:28:34;20.34;47.28
36244;DHT22;22284;49.956;19.816;2022-09-02T12:31:48;20.32;47.26
36244;DHT22;22284;49.956;19.816;2022-09-02T12:34:51;20.34;47.29
36244;DHT22;22284;49.956;19.816;2022-09-02T12:37:55;20.35;47.32
36244;DHT22;22284;49.956;19.816;2022-09-02T12:41:08;20.44;47.42
36244;DHT22;22284;49.956;19.816;2022-09-02T12:48:17;20.49;46.96
36244;DHT22;22284;49.956;19.816;2022-09-02T12:51:59;20.55;46.92
36244;DHT22;22284;49.956;19.816;2022-09-02T12:58:13;20.62;46.60
36244;DHT22;22284;49.956;19.816;2022-09-02T13:01:24;20.66;46.91
36244;DHT22;22284;49.956;19.816;2022-09-02T13:26:12;20.79;46.24
36244;DHT22;22284;49.956;19.816;2022-09-02T13:32:42;20.82;46.42
36244;DHT22;22284;49.956;19.816;2022-09-02T13:35:43;20.83;46.45
36244;DHT22;22284;49.956;19.816;2022-09-02T13:38:44;20.86;46.60
36244;DHT22;22284;49.956;19.816;2022-09-02T13:41:46;20.90;46.65
36244;DHT22;22284;49.956;19.816;2022-09-02T13:44:49;20.86;46.54
36244;DHT22;22284;49.956;19.816;2022-09-02T13:47:55;20.86;46.52
36244;DHT22;22284;49.956;19.816;2022-09-02T13:51:13;20.89;46.71
36244;DHT22;22284;49.956;19.816;2022-09-02T13:54:14;20.90;47.03
36244;DHT22;22284;49.956;19.816;2022-09-02T13:57:22;20.90;46.81
36244;DHT22;22284;49.956;19.816;2022-09-02T14:00:38;20.96;46.84
36244;DHT22;22284;49.956;19.816;2022-09-02T14:03:37;20.96;46.88
36244;DHT22;22284;49.956;19.816;2022-09-02T14:06:41;20.94;46.37
36244;DHT22;22284;49.956;19.816;2022-09-02T14:09:44;20.93;46.33
36244;DHT22;22284;49.956;19.816;2022-09-02T14:12:46;20.87;46.25
36244;DHT22;22284;49.956;19.816;2022-09-02T14:15:48;20.87;46.45
36244;DHT22;22284;49.956;19.816;2022-09-02T14:19:09;20.84;46.76
36244;DHT22;22284;49.956;19.816;2022-09-02T14:22:27;20.87;47.01
36244;DHT22;22284;49.956;19.816;2022-09-02T14:25:38;20.84;46.80
36244;DHT22;22284;49.956;19.816;2022-09-02T14:28:36;20.84;47.08
36244;DHT22;22284;49.956;19.816;2022-09-02T14:31:37;20.90;47.16
36244;DHT22;22284;49.956;19.816;2022-09-02T14:34:46;20.90;47.16
36244;DHT22;22284;49.956;19.816;2022-09-02T14:37:54;20.90;47.40
36244;DHT22;22284;49.956;19.816;2022-09-02T14:41:26;20.94;47.46
36244;DHT22;22284;49.956;19.816;2022-09-02T14:44:31;20.94;47.42
36244;DHT22;22284;49.956;19.816;2022-09-02T14:47:36;20.92;46.81
36244;DHT22;22284;49.956;19.816;2022-09-02T14:50:39;20.89;47.01
36244;DHT22;22284;49.956;19.816;2022-09-02T14:53:42;20.92;47.32
36244;DHT22;22284;49.956;19.816;2022-09-02T14:56:51;20.93;47.45
36244;DHT22;22284;49.956;19.816;2022-09-02T14:59:55;20.94;47.42
36244;DHT22;22284;49.956;19.816;2022-09-02T15:02:57;20.93;47.24
36244;DHT22;22284;49.956;19.816;2022-09-02T15:06:00;20.87;47.30
36244;DHT22;22284;49.956;19.816;2022-09-02T15:09:01;20.87;47.31
36244;DHT22;22284;49.956;19.816;2022-09-02T15:12:02;20.84;47.16
36244;DHT22;22284;49.956;19.816;2022-09-02T15:15:05;20.82;47.23
36244;DHT22;22284;49.956;19.816;2022-09-02T15:18:05;20.82;46.92
36244;DHT22;22284;49.956;19.816;2022-09-02T15:21:07;20.82;47.64
36244;DHT22;22284;49.956;19.816;2022-09-02T15:24:09;20.78;47.57
36244;DHT22;22284;49.956;19.816;2022-09-02T15:27:11;20.73;47.78
36244;DHT22;22284;49.956;19.816;2022-09-02T15:30:12;20.72;47.86
36244;DHT22;22284;49.956;19.816;2022-09-02T15:33:14;20.69;48.00
36244;DHT22;22284;49.956;19.816;2022-09-02T15:36:14;20.71;48.01
36244;DHT22;22284;49.956;19.816;2022-09-02T15:39:16;20.69;48.04
36244;DHT22;22284;49.956;19.816;2022-09-02T15:42:19;20.68;48.31
36244;DHT22;22284;49.956;19.816;2022-09-02T15:45:20;20.66;48.48
36244;DHT22;22284;49.956;19.816;2022-09-02T15:48:21;20.65;48.52
36244;DHT22;22284;49.956;19.816;2022-09-02T15:51:23;20.62;48.68
36244;DHT22;22284;49.956;19.816;2022-09-02T15:54:24;20.65;48.82
36244;DHT22;22284;49.956;19.816;2022-09-02T15:57:25;20.63;48.85
36244;DHT22;22284;49.956;19.816;2022-09-02T16:00:26;20.63;48.78
36244;DHT22;22284;49.956;19.816;2022-09-02T16:03:27;20.58;48.49
36244;DHT22;22284;49.956;19.816;2022-09-02T16:06:29;20.52;48.87
36244;DHT22;22284;49.956;19.816;2022-09-02T16:09:30;20.54;48.83
36244;DHT22;22284;49.956;19.816;2022-09-02T16:12:31;20.48;49.07
36244;DHT22;22284;49.956;19.816;2022-09-02T16:15:32;20.48;49.18
36244;DHT22;22284;49.956;19.816;2022-09-02T16:18:35;20.47;49.40
36244;DHT22;22284;49.956;19.816;2022-09-02T16:21:37;20.47;49.34
36244;DHT22;22284;49.956;19.816;2022-09-02T16:24:39;20.45;49.49
36244;DHT22;22284;49.956;19.816;2022-09-02T16:27:39;20.48;49.53
36244;DHT22;22284;49.956;19.816;2022-09-02T16:30:53;20.47;49.72
36244;DHT22;22284;49.956;19.816;2022-09-02T16:34:00;20.47;49.85
36244;DHT22;22284;49.956;19.816;2022-09-02T16:37:01;20.48;49.99
36244;DHT22;22284;49.956;19.816;2022-09-02T16:40:04;20.44;50.23
36244;DHT22;22284;49.956;19.816;2022-09-02T16:43:05;20.42;50.38
36244;DHT22;22284;49.956;19.816;2022-09-02T16:46:07;20.41;50.50
36244;DHT22;22284;49.956;19.816;2022-09-02T16:49:10;20.37;50.83
36244;DHT22;22284;49.956;19.816;2022-09-02T16:52:12;20.35;51.07
36244;DHT22;22284;49.956;19.816;2022-09-02T16:55:13;20.34;51.37
36244;DHT22;22284;49.956;19.816;2022-09-02T16:58:16;20.34;51.55
36244;DHT22;22284;49.956;19.816;2022-09-02T17:01:20;20.32;51.81
36244;DHT22;22284;49.956;19.816;2022-09-02T17:04:22;20.30;52.04
36244;DHT22;22284;49.956;19.816;2022-09-02T17:07:23;20.25;52.26
36244;DHT22;22284;49.956;19.816;2022-09-02T17:10:24;20.24;52.37
36244;DHT22;22284;49.956;19.816;2022-09-02T17:13:25;20.24;52.52
36244;DHT22;22284;49.956;19.816;2022-09-02T17:16:31;20.21;52.68
36244;DHT22;22284;49.956;19.816;2022-09-02T17:19:32;20.19;52.83
36244;DHT22;22284;49.956;19.816;2022-09-02T17:22:33;20.19;52.96
36244;DHT22;22284;49.956;19.816;2022-09-02T17:25:34;20.17;53.08
36244;DHT22;22284;49.956;19.816;2022-09-02T17:28:35;20.11;53.21
36244;DHT22;22284;49.956;19.816;2022-09-02T17:31:38;20.11;53.25
36244;DHT22;22284;49.956;19.816;2022-09-02T17:34:39;20.07;53.38
36244;DHT22;22284;49.956;19.816;2022-09-02T17:37:40;20.06;53.39
36244;DHT22;22284;49.956;19.816;2022-09-02T17:40:41;19.99;53.41
36244;DHT22;22284;49.956;19.816;2022-09-02T17:44:01;19.99;53.51
36244;DHT22;22284;49.956;19.816;2022-09-02T17:47:15;20.00;53.65
36244;DHT22;22284;49.956;19.816;2022-09-02T17:50:16;19.99;53.62
36244;DHT22;22284;49.956;19.816;2022-09-02T17:53:18;19.99;53.61
36244;DHT22;22284;49.956;19.816;2022-09-02T17:56:41;19.94;53.62
36244;DHT22;22284;49.956;19.816;2022-09-02T18:00:05;19.93;53.57
36244;DHT22;22284;49.956;19.816;2022-09-02T18:06:40;19.87;53.35
36244;DHT22;22284;49.956;19.816;2022-09-02T18:09:45;19.87;53.61
36244;DHT22;22284;49.956;19.816;2022-09-02T18:12:46;19.87;53.66
36244;DHT22;22284;49.956;19.816;2022-09-02T18:16:02;19.83;53.66
36244;DHT22;22284;49.956;19.816;2022-09-02T18:19:09;19.80;53.40
36244;DHT22;22284;49.956;19.816;2022-09-02T18:22:34;19.79;53.73
36244;DHT22;22284;49.956;19.816;2022-09-02T18:26:01;19.77;53.73
36244;DHT22;22284;49.956;19.816;2022-09-02T18:29:22;19.75;53.65
36244;DHT22;22284;49.956;19.816;2022-09-02T18:32:40;19.70;53.69
36244;DHT22;22284;49.956;19.816;2022-09-02T18:36:28;19.64;53.79
36244;DHT22;22284;49.956;19.816;2022-09-02T18:43:03;19.57;53.80
36244;DHT22;22284;49.956;19.816;2022-09-02T18:46:02;19.54;53.78
36244;DHT22;22284;49.956;19.816;2022-09-02T18:49:05;19.49;53.93
36244;DHT22;22284;49.956;19.816;2022-09-02T18:52:08;19.49;53.93
36244;DHT22;22284;49.956;19.816;2022-09-02T18:55:15;19.47;53.95
36244;DHT22;22284;49.956;19.816;2022-09-02T18:58:48;19.47;53.79
36244;DHT22;22284;49.956;19.816;2022-09-02T19:01:50;19.47;53.62
36244;DHT22;22284;49.956;19.816;2022-09-02T19:05:03;19.44;53.48
36244;DHT22;22284;49.956;19.816;2022-09-02T19:08:19;19.42;53.33
36244;DHT22;22284;49.956;19.816;2022-09-02T19:11:35;19.38;53.30
36244;DHT22;22284;49.956;19.816;2022-09-02T19:14:38;19.38;53.13
36244;DHT22;22284;49.956;19.816;2022-09-02T19:17:40;19.37;53.17
36244;DHT22;22284;49.956;19.816;2022-09-02T19:20:41;19.38;53.00
36244;DHT22;22284;49.956;19.816;2022-09-02T19:23:43;19.37;52.94
36244;DHT22;22284;49.956;19.816;2022-09-02T19:26:44;19.38;52.89
36244;DHT22;22284;49.956;19.816;2022-09-02T19:29:50;19.35;52.75
36244;DHT22;22284;49.956;19.816;2022-09-02T19:32:56;19.31;52.72
36244;DHT22;22284;49.956;19.816;2022-09-02T19:35:57;19.30;52.66
36244;DHT22;22284;49.956;19.816;2022-09-02T19:38:58;19.34;52.65
36244;DHT22;22284;49.956;19.816;2022-09-02T19:42:00;19.34;52.54
36244;DHT22;22284;49.956;19.816;2022-09-02T19:45:01;19.30;52.47
36244;DHT22;22284;49.956;19.816;2022-09-02T19:48:04;19.33;52.39
36244;DHT22;22284;49.956;19.816;2022-09-02T19:51:08;19.29;52.39
36244;DHT22;22284;49.956;19.816;2022-09-02T19:54:13;19.27;52.41
36244;DHT22;22284;49.956;19.816;2022-09-02T19:57:15;19.27;52.39
36244;DHT22;22284;49.956;19.816;2022-09-02T20:00:16;19.26;52.25
36244;DHT22;22284;49.956;19.816;2022-09-02T20:03:17;19.23;52.20
36244;DHT22;22284;49.956;19.816;2022-09-02T20:06:19;19.20;52.22
36244;DHT22;22284;49.956;19.816;2022-09-02T20:09:20;19.21;52.19
36244;DHT22;22284;49.956;19.816;2022-09-02T20:12:21;19.19;52.19
36244;DHT22;22284;49.956;19.816;2022-09-02T20:15:22;19.19;52.21
36244;DHT22;22284;49.956;19.816;2022-09-02T20:18:24;19.19;52.13
36244;DHT22;22284;49.956;19.816;2022-09-02T20:21:30;19.17;52.01
36244;DHT22;22284;49.956;19.816;2022-09-02T20:24:33;19.14;51.86
36244;DHT22;22284;49.956;19.816;2022-09-02T20:27:54;19.10;51.69
36244;DHT22;22284;49.956;19.816;2022-09-02T20:31:14;19.07;51.63
36244;DHT22;22284;49.956;19.816;2022-09-02T20:38:05;18.96;51.32
36244;DHT22;22284;49.956;19.816;2022-09-02T20:41:57;18.99;51.45
36244;DHT22;22284;49.956;19.816;2022-09-02T20:51:38;18.87;50.99
36244;DHT22;22284;49.956;19.816;2022-09-02T20:54:54;18.89;50.85
36244;DHT22;22284;49.956;19.816;2022-09-02T20:58:13;18.87;50.71
36244;DHT22;22284;49.956;19.816;2022-09-02T21:01:26;18.85;50.46
36244;DHT22;22284;49.956;19.816;2022-09-02T21:04:40;18.86;50.52
36244;DHT22;22284;49.956;19.816;2022-09-02T21:07:46;18.86;50.48
36244;DHT22;22284;49.956;19.816;2022-09-02T21:10:51;18.90;50.31
36244;DHT22;22284;49.956;19.816;2022-09-02T21:14:04;18.86;50.28
36244;DHT22;22284;49.956;19.816;2022-09-02T21:17:08;18.85;50.24